Time;durP1;ratioP1;P1;durP2;ratioP2;P2;SDS_P1;SDS_P2;PMS_P1;PMS_P2;Temp;Humidity;BMP_temperature;BMP_pressure;BME280_temperature;BME280_humidity;BME280_pressure;Samples;Min_cycle;Max_cycle;Signal;HPM_P1;HPM_P2
2023/11/29 07:44:10;;;;;;;15.47;10.10;;;2.90;96.60;;;;;;776621;183;26491;-89
2023/11/29 07:46:38;;;;;;;16.70;10.30;;;2.80;96.60;;;;;;779423;181;27031;-89
2023/11/29 07:49:23;;;;;;;17.97;11.07;;;2.90;96.70;;;;;;776903;184;26457;-89
2023/11/29 07:51:55;;;;;;;14.90;9.77;;;3.10;96.70;;;;;;772361;185;26610;-89
2023/11/29 07:54:25;;;;;;;16.40;10.33;;;3.20;96.40;;;;;;766354;179;26593;-87
2023/11/29 07:57:02;;;;;;;13.43;9.47;;;3.20;96.10;;;;;;750435;190;26543;-87
2023/11/29 07:59:32;;;;;;;16.80;10.57;;;3.30;95.60;;;;;;750443;189;27086;-88
2023/11/29 08:01:59;;;;;;;15.70;9.20;;;3.40;96.00;;;;;;746500;190;26519;-86
2023/11/29 08:04:35;;;;;;;19.83;10.77;;;3.50;95.50;;;;;;750526;187;26608;-88
2023/11/29 08:09:44;;;;;;;18.17;10.87;;;3.50;95.50;;;;;;746430;191;26570;-88
2023/11/29 08:12:16;;;;;;;15.23;8.77;;;3.50;95.40;;;;;;751543;188;27107;-88
2023/11/29 08:14:41;;;;;;;18.73;11.17;;;3.50;95.20;;;;;;751671;191;26537;-88
2023/11/29 08:17:14;;;;;;;20.90;14.43;;;3.50;95.30;;;;;;752116;188;26547;-87
2023/11/29 08:19:40;;;;;;;18.00;11.37;;;3.50;95.60;;;;;;746683;191;26530;-89
2023/11/29 08:22:11;;;;;;;15.60;10.20;;;3.50;95.60;;;;;;743307;193;26599;-88
2023/11/29 08:24:38;;;;;;;14.90;8.57;;;3.60;95.60;;;;;;742571;193;26558;-86
2023/11/29 08:27:20;;;;;;;21.10;12.27;;;3.60;95.60;;;;;;741657;191;27070;-88
2023/11/29 08:29:47;;;;;;;18.03;10.90;;;3.70;96.00;;;;;;732744;194;26509;-87
2023/11/29 08:32:21;;;;;;;16.10;10.50;;;3.60;95.70;;;;;;741523;191;26548;-86
2023/11/29 08:34:48;;;;;;;15.90;9.80;;;3.60;95.60;;;;;;742012;193;27099;-87
2023/11/29 08:37:16;;;;;;;17.40;11.23;;;3.70;95.50;;;;;;741917;193;26526;-89
2023/11/29 08:39:41;;;;;;;18.33;10.37;;;3.70;95.70;;;;;;741789;193;26537;-88
2023/11/29 08:42:07;;;;;;;20.13;10.40;;;3.70;95.40;;;;;;741844;190;26517;-88
2023/11/29 08:44:37;;;;;;;15.70;10.27;;;3.80;95.40;;;;;;741818;193;26538;-88
2023/11/29 08:47:03;;;;;;;19.83;11.37;;;3.90;95.40;;;;;;744378;191;26530;-87
2023/11/29 08:49:30;;;;;;;21.03;12.40;;;3.90;95.30;;;;;;743417;192;26522;-87
2023/11/29 08:51:57;;;;;;;15.73;8.93;;;3.90;95.10;;;;;;743203;192;26546;-89
2023/11/29 08:54:23;;;;;;;14.43;8.27;;;4.00;94.80;;;;;;742974;190;26567;-88
2023/11/29 08:56:50;;;;;;;13.10;9.73;;;4.00;94.70;;;;;;751760;191;26556;-88
2023/11/29 08:59:17;;;;;;;14.43;9.40;;;4.00;94.80;;;;;;752550;191;26536;-87
2023/11/29 09:01:44;;;;;;;16.53;11.57;;;4.10;94.70;;;;;;752680;187;26519;-89
2023/11/29 09:04:11;;;;;;;15.30;9.30;;;4.10;94.70;;;;;;752276;191;27162;-87
2023/11/29 09:06:37;;;;;;;15.00;10.00;;;4.10;94.30;;;;;;752162;191;26540;-88
2023/11/29 09:09:04;;;;;;;11.43;8.00;;;4.20;94.50;;;;;;752129;188;27051;-88
2023/11/29 09:11:37;;;;;;;13.57;9.37;;;4.20;94.50;;;;;;747135;191;26577;-87
2023/11/29 09:33:26;;;;;;;13.40;9.03;;;4.90;92.80;;;;;;766077;187;28181;-87
2023/11/29 09:35:53;;;;;;;13.17;8.40;;;4.80;92.40;;;;;;763906;187;26542;-87
2023/11/29 09:38:22;;;;;;;10.37;6.43;;;4.80;93.00;;;;;;778988;184;26496;-88
2023/11/29 09:40:49;;;;;;;10.40;6.87;;;4.80;92.20;;;;;;777365;183;26471;-91
2023/11/29 09:43:15;;;;;;;12.53;6.87;;;4.70;92.30;;;;;;773850;184;26485;-90
2023/11/29 09:45:43;;;;;;;14.53;8.50;;;4.60;92.30;;;;;;768044;185;27069;-88
2023/11/29 09:48:09;;;;;;;12.87;8.87;;;4.70;92.70;;;;;;770087;184;26504;-88
2023/11/29 09:50:42;;;;;;;11.33;7.60;;;4.70;92.90;;;;;;765255;178;26514;-94
2023/11/29 09:53:12;;;;;;;13.27;8.13;;;4.80;92.90;;;;;;773106;178;26491;-92
2023/11/29 09:55:47;;;;;;;11.87;7.63;;;4.70;92.80;;;;;;768679;184;26486;-92
2023/11/29 09:58:14;;;;;;;10.27;7.30;;;4.60;92.60;;;;;;775446;180;26468;-92
2023/11/29 10:00:40;;;;;;;10.40;7.93;;;4.70;93.00;;;;;;781652;179;26466;-93
2023/11/29 10:03:12;;;;;;;10.33;8.13;;;4.90;93.10;;;;;;771808;177;26495;-89
2023/11/29 10:05:38;;;;;;;12.53;7.97;;;4.90;92.60;;;;;;767031;183;26512;-90
2023/11/29 10:08:05;;;;;;;13.83;8.93;;;4.90;92.30;;;;;;774381;183;27023;-88
2023/11/29 10:10:34;;;;;;;14.70;8.10;;;4.90;92.60;;;;;;777596;183;26506;-89
2023/11/29 10:13:01;;;;;;;11.77;7.63;;;4.80;92.10;;;;;;771946;184;26471;-90
2023/11/29 10:15:28;;;;;;;24.33;14.17;;;4.80;91.90;;;;;;768339;183;27058;-88
2023/11/29 10:17:54;;;;;;;12.27;8.93;;;4.70;92.40;;;;;;773089;184;26796;-91
2023/11/29 10:20:21;;;;;;;15.20;8.70;;;4.70;92.80;;;;;;766325;184;26495;-88
2023/11/29 10:22:49;;;;;;;13.07;9.50;;;4.60;92.80;;;;;;764982;183;26482;-89
2023/11/29 10:25:18;;;;;;;24.43;14.30;;;4.60;93.20;;;;;;765852;183;27067;-89
2023/11/29 10:27:43;;;;;;;18.67;12.13;;;4.60;93.60;;;;;;773932;183;26499;-89
2023/11/29 10:30:11;;;;;;;31.67;17.30;;;4.70;93.90;;;;;;770113;183;27095;-89
2023/11/29 10:32:37;;;;;;;25.20;15.60;;;4.70;93.30;;;;;;776081;183;26483;-89
2023/11/29 10:35:05;;;;;;;16.03;9.80;;;4.70;93.40;;;;;;764243;184;27051;-88
2023/11/29 10:37:32;;;;;;;12.33;8.43;;;4.80;93.00;;;;;;774968;184;26474;-89
2023/11/29 10:39:58;;;;;;;12.43;9.33;;;4.70;92.60;;;;;;772698;185;26513;-88
2023/11/29 10:42:29;;;;;;;10.90;7.67;;;4.70;93.40;;;;;;771540;184;26475;-91
2023/11/29 10:44:56;;;;;;;11.97;7.27;;;4.80;93.20;;;;;;771528;181;26492;-89
2023/11/29 10:47:27;;;;;;;14.73;9.57;;;4.80;92.60;;;;;;769805;184;26472;-88
2023/11/29 10:49:57;;;;;;;9.70;7.93;;;4.80;92.80;;;;;;770256;184;26519;-89
2023/11/29 10:52:25;;;;;;;11.87;8.73;;;4.80;92.30;;;;;;765292;184;27031;-89
2023/11/29 10:54:50;;;;;;;11.50;8.30;;;4.80;92.60;;;;;;762641;185;27058;-91
2023/11/29 10:57:19;;;;;;;14.43;10.57;;;4.80;92.30;;;;;;765156;184;27055;-89
2023/11/29 10:59:45;;;;;;;18.00;11.10;;;4.90;92.80;;;;;;768938;183;26496;-90
2023/11/29 11:02:13;;;;;;;12.23;8.20;;;4.90;93.30;;;;;;768831;183;26508;-91
2023/11/29 11:04:39;;;;;;;12.37;8.10;;;4.90;92.00;;;;;;771706;183;27060;-89
2023/11/29 11:07:05;;;;;;;13.40;8.27;;;5.00;92.20;;;;;;770507;183;26475;-90
2023/11/29 11:09:40;;;;;;;11.53;6.77;;;5.00;91.90;;;;;;775424;182;27039;-89
2023/11/29 11:12:07;;;;;;;21.77;13.20;;;5.00;92.10;;;;;;766538;183;26473;-89
2023/11/29 11:14:39;;;;;;;62.67;28.23;;;5.00;91.80;;;;;;776430;184;26521;-89
2023/11/29 11:17:11;;;;;;;116.50;45.93;;;5.10;92.20;;;;;;766122;184;26486;-89
2023/11/29 11:19:37;;;;;;;83.70;36.97;;;5.20;92.40;;;;;;774863;183;26480;-89
2023/11/29 11:22:10;;;;;;;37.33;20.27;;;5.40;92.50;;;;;;780736;181;26528;-89
2023/11/29 11:24:48;;;;;;;69.27;36.43;;;5.40;92.10;;;;;;771938;184;26526;-88
2023/11/29 11:27:15;;;;;;;28.60;17.57;;;5.40;91.70;;;;;;775093;184;26499;-90
2023/11/29 11:29:42;;;;;;;14.57;9.17;;;5.30;91.40;;;;;;764361;184;26532;-90
2023/11/29 11:32:08;;;;;;;18.67;11.37;;;5.30;91.40;;;;;;766398;183;27122;-89
2023/11/29 11:34:35;;;;;;;25.80;13.90;;;5.20;91.50;;;;;;771848;181;26495;-89
2023/11/29 11:37:02;;;;;;;18.00;10.70;;;5.20;92.00;;;;;;773341;182;26520;-90
2023/11/29 11:39:29;;;;;;;17.23;11.03;;;5.20;92.10;;;;;;764074;184;26571;-90
2023/11/29 11:41:55;;;;;;;15.77;9.50;;;5.00;92.00;;;;;;763907;183;26474;-89
2023/11/29 11:44:22;;;;;;;56.77;29.20;;;4.90;92.40;;;;;;763578;188;26587;-89
2023/11/29 11:46:50;;;;;;;29.07;17.07;;;4.80;92.90;;;;;;763251;184;26490;-90
2023/11/29 11:49:15;;;;;;;18.57;12.20;;;4.80;93.40;;;;;;763106;188;27039;-89
2023/11/29 11:51:42;;;;;;;25.03;14.47;;;4.70;93.00;;;;;;763497;188;26500;-89
2023/11/29 11:54:08;;;;;;;20.43;11.47;;;4.70;93.40;;;;;;763305;187;27025;-90
2023/11/29 11:56:35;;;;;;;14.17;10.07;;;4.70;93.90;;;;;;763324;188;26514;-88
2023/11/29 11:59:03;;;;;;;10.77;8.40;;;4.70;93.90;;;;;;763249;183;27054;-88
2023/11/29 12:01:29;;;;;;;8.77;6.50;;;4.70;93.70;;;;;;763213;188;27035;-88
2023/11/29 12:03:55;;;;;;;20.17;14.20;;;4.60;93.30;;;;;;763226;184;26510;-90
2023/11/29 12:06:21;;;;;;;12.33;8.83;;;4.60;93.80;;;;;;763158;188;27067;-88
2023/11/29 12:08:49;;;;;;;11.50;8.47;;;4.60;93.80;;;;;;763238;188;26538;-89
2023/11/29 12:11:16;;;;;;;12.13;8.07;;;4.70;93.90;;;;;;763181;184;26482;-89
2023/11/29 12:13:42;;;;;;;14.43;8.83;;;4.60;93.50;;;;;;763366;188;26485;-88
2023/11/29 12:16:21;;;;;;;59.47;32.30;;;4.60;93.60;;;;;;762996;183;26593;-89
2023/11/29 12:18:45;;;;;;;20.50;11.87;;;4.60;94.10;;;;;;763156;187;26485;-89
2023/11/29 12:21:15;;;;;;;7.83;6.60;;;4.60;93.70;;;;;;765304;183;26517;-89
2023/11/29 12:23:43;;;;;;;12.43;8.50;;;4.60;93.60;;;;;;765139;188;26527;-88
2023/11/29 12:26:15;;;;;;;8.57;6.47;;;4.60;94.00;;;;;;764682;187;27044;-89
2023/11/29 12:28:42;;;;;;;13.90;8.60;;;4.50;93.60;;;;;;758993;188;26480;-88
2023/11/29 12:31:09;;;;;;;12.47;7.83;;;4.50;94.10;;;;;;764173;188;26508;-89
2023/11/29 12:33:35;;;;;;;10.60;7.13;;;4.40;93.90;;;;;;764027;183;26552;-89
2023/11/29 12:36:03;;;;;;;11.37;8.07;;;4.50;94.10;;;;;;768088;187;26505;-89
2023/11/29 12:38:28;;;;;;;17.30;10.97;;;4.50;94.60;;;;;;767780;183;26481;-89
2023/11/29 12:40:55;;;;;;;38.80;21.40;;;4.50;94.40;;;;;;764020;182;26801;-90
2023/11/29 12:43:26;;;;;;;39.87;21.83;;;4.50;94.50;;;;;;763840;183;26486;-88
2023/11/29 12:45:53;;;;;;;10.17;8.67;;;4.50;95.00;;;;;;763728;188;26497;-89
2023/11/29 12:48:22;;;;;;;14.37;9.93;;;4.60;94.80;;;;;;763800;187;28107;-88
2023/11/29 12:50:49;;;;;;;20.63;14.40;;;4.60;94.70;;;;;;764521;188;26502;-89
2023/11/29 12:53:15;;;;;;;10.33;9.00;;;4.60;94.70;;;;;;763861;188;26540;-89
2023/11/29 12:55:42;;;;;;;10.47;7.00;;;4.50;94.50;;;;;;763835;183;26854;-90
2023/11/29 12:58:16;;;;;;;18.53;9.30;;;4.50;94.50;;;;;;763354;188;27052;-89
2023/11/29 13:00:45;;;;;;;17.53;11.13;;;4.50;95.00;;;;;;763437;188;27011;-89
2023/11/29 13:03:09;;;;;;;11.63;7.70;;;4.50;94.90;;;;;;763245;188;26496;-88
2023/11/29 13:05:36;;;;;;;15.27;7.30;;;4.60;94.80;;;;;;763353;187;26519;-88
2023/11/29 13:08:03;;;;;;;23.90;15.43;;;4.60;94.90;;;;;;763443;188;27067;-90
2023/11/29 13:10:34;;;;;;;19.73;11.93;;;4.60;95.50;;;;;;763620;187;26489;-90
2023/11/29 13:13:03;;;;;;;29.27;18.67;;;4.60;95.00;;;;;;766988;184;26506;-90
2023/11/29 13:15:47;;;;;;;18.67;11.33;;;4.70;95.90;;;;;;766862;184;26494;-89
2023/11/29 13:18:13;;;;;;;12.23;8.10;;;4.50;95.20;;;;;;771848;183;26484;-90
2023/11/29 13:40:37;;;;;;;13.83;8.37;;;4.20;95.60;;;;;;754566;187;26526;-89
2023/11/29 13:49:12;;;;;;;16.60;10.93;;;4.50;95.60;;;;;;774374;180;27044;-89
2023/11/29 13:51:38;;;;;;;13.43;10.07;;;4.60;95.60;;;;;;757704;187;26522;-89
2023/11/29 13:54:34;;;;;;;;;;;;;;;;;;;;;
2023/11/29 13:57:13;;;;;;;11.57;9.47;;;4.70;95.70;;;;;;750790;186;26507;-89
2023/11/29 14:02:20;;;;;;;13.50;10.37;;;4.60;95.70;;;;;;762846;179;26500;-90
2023/11/29 14:04:47;;;;;;;17.37;11.40;;;4.60;95.50;;;;;;758100;187;27071;-91
2023/11/29 14:07:13;;;;;;;21.03;12.87;;;4.60;95.80;;;;;;759197;188;26529;-90
2023/11/29 14:10:02;;;;;;;14.23;9.53;;;4.70;96.30;;;;;;756957;187;26521;-92
2023/11/29 14:12:42;;;;;;;11.63;7.30;;;4.60;95.80;;;;;;748050;189;27160;-90
2023/11/29 14:15:09;;;;;;;11.57;8.97;;;4.50;95.40;;;;;;764394;184;26519;-89
2023/11/29 14:17:36;;;;;;;16.90;9.60;;;4.50;95.40;;;;;;769484;182;26482;-89
2023/11/29 14:20:09;;;;;;;20.13;12.07;;;4.50;95.80;;;;;;768084;184;26560;-89
2023/11/29 14:22:35;;;;;;;124.23;52.63;;;4.40;95.60;;;;;;787258;180;26510;-90
2023/11/29 14:25:03;;;;;;;26.13;15.13;;;4.50;95.90;;;;;;792310;179;27010;-89
2023/11/29 14:27:29;;;;;;;21.93;11.03;;;4.50;95.90;;;;;;780223;182;27011;-88
2023/11/29 14:29:55;;;;;;;15.33;10.73;;;4.50;95.20;;;;;;779112;179;26446;-88
2023/11/29 14:32:22;;;;;;;23.47;12.97;;;4.50;95.60;;;;;;780669;179;26572;-90
2023/11/29 14:34:48;;;;;;;25.27;14.77;;;4.50;95.20;;;;;;777226;183;26483;-91
2023/11/29 14:37:15;;;;;;;16.30;9.73;;;4.60;96.00;;;;;;777451;184;26482;-88
2023/11/29 14:39:43;;;;;;;14.53;11.17;;;4.70;95.90;;;;;;777339;181;26481;-88
2023/11/29 14:42:08;;;;;;;12.93;8.20;;;4.70;95.20;;;;;;766196;181;27061;-88
2023/11/29 14:44:39;;;;;;;13.20;10.50;;;4.80;95.60;;;;;;765779;185;26502;-85
2023/11/29 14:47:05;;;;;;;98.50;45.63;;;4.80;95.30;;;;;;760880;184;26566;-90
2023/11/29 14:49:32;;;;;;;115.20;50.83;;;5.00;95.70;;;;;;766751;185;26526;-86
2023/11/29 14:52:06;;;;;;;126.73;58.70;;;5.00;95.40;;;;;;763690;185;27073;-86
2023/11/29 14:54:32;;;;;;;96.50;49.63;;;5.00;94.90;;;;;;760686;187;26505;-87
2023/11/29 14:56:59;;;;;;;41.27;19.70;;;5.00;95.40;;;;;;763932;185;27042;-88
2023/11/29 14:59:25;;;;;;;96.83;46.90;;;5.00;94.80;;;;;;763338;185;26884;-87
2023/11/29 15:01:54;;;;;;;56.43;29.83;;;4.90;94.80;;;;;;761787;186;26645;-88
2023/11/29 15:04:20;;;;;;;42.67;21.37;;;4.80;95.40;;;;;;760970;187;27080;-88
2023/11/29 15:06:47;;;;;;;45.73;24.53;;;4.80;94.90;;;;;;767139;183;26521;-88
2023/11/29 15:09:15;;;;;;;35.60;18.07;;;4.70;94.90;;;;;;762578;187;26494;-87
2023/11/29 15:11:42;;;;;;;19.30;12.83;;;4.60;94.90;;;;;;761695;185;27081;-88
2023/11/29 15:14:08;;;;;;;34.73;20.17;;;4.50;94.80;;;;;;762260;187;26498;-90
2023/11/29 15:16:35;;;;;;;87.67;42.93;;;4.40;94.80;;;;;;761398;187;26528;-89
2023/11/29 15:19:06;;;;;;;82.07;39.93;;;4.30;95.00;;;;;;763054;185;27072;-91
2023/11/29 15:21:31;;;;;;;69.33;36.30;;;4.30;95.70;;;;;;762003;185;26514;-90
2023/11/29 15:23:57;;;;;;;35.80;20.30;;;4.20;95.60;;;;;;758117;188;27088;-91
2023/11/29 15:26:25;;;;;;;104.93;49.30;;;4.20;95.90;;;;;;759022;187;26585;-89
2023/11/29 15:28:51;;;;;;;106.13;48.30;;;4.20;95.90;;;;;;758406;185;26497;-90
2023/11/29 15:31:18;;;;;;;61.50;30.33;;;4.10;95.60;;;;;;757921;186;26559;-92
2023/11/29 15:33:53;;;;;;;93.80;40.27;;;4.10;95.80;;;;;;761275;187;26552;-88
2023/11/29 15:36:21;;;;;;;195.10;71.97;;;4.10;95.90;;;;;;763410;185;26548;-91
2023/11/29 15:38:49;;;;;;;260.17;100.13;;;4.00;95.80;;;;;;764292;183;26510;-88
2023/11/29 15:41:16;;;;;;;188.87;74.30;;;4.10;95.60;;;;;;758766;186;27065;-89
2023/11/29 15:43:42;;;;;;;76.13;36.57;;;4.10;95.20;;;;;;759714;185;27167;-92
2023/11/29 15:46:10;;;;;;;103.53;47.07;;;4.10;95.20;;;;;;764940;187;26511;-91
2023/11/29 15:48:36;;;;;;;76.90;38.30;;;4.00;95.30;;;;;;763718;185;26491;-90
2023/11/29 15:51:02;;;;;;;174.43;82.53;;;3.90;95.20;;;;;;764012;185;27077;-91
2023/11/29 15:53:34;;;;;;;65.10;31.93;;;3.80;95.30;;;;;;759167;187;28265;-91
2023/11/29 15:55:56;;;;;;;51.20;26.27;;;3.60;95.30;;;;;;763289;186;26500;-91
2023/11/29 15:58:22;;;;;;;56.00;27.83;;;3.60;95.50;;;;;;765817;186;26642;-90
2023/11/29 16:00:52;;;;;;;75.87;38.07;;;3.60;95.70;;;;;;761462;184;26537;-90
2023/11/29 16:03:18;;;;;;;28.43;16.17;;;3.50;95.40;;;;;;763493;186;26555;-90
2023/11/29 16:05:46;;;;;;;63.57;31.47;;;3.50;95.90;;;;;;764374;184;26500;-89
2023/11/29 16:08:12;;;;;;;53.80;26.93;;;3.60;96.40;;;;;;762420;185;27083;-89
2023/11/29 16:10:39;;;;;;;140.40;59.07;;;3.70;96.30;;;;;;765481;183;26565;-90
2023/11/29 16:13:05;;;;;;;97.87;45.03;;;3.60;96.20;;;;;;764396;183;26500;-88
2023/11/29 16:15:33;;;;;;;90.43;46.43;;;3.50;96.40;;;;;;763229;183;28139;-88
2023/11/29 16:17:59;;;;;;;79.67;39.67;;;3.50;96.50;;;;;;761925;187;26549;-91
2023/11/29 16:20:27;;;;;;;195.90;69.77;;;3.40;96.40;;;;;;765218;185;26500;-90
2023/11/29 16:22:57;;;;;;;55.40;27.90;;;3.40;96.40;;;;;;764002;185;26536;-90
2023/11/29 16:25:35;;;;;;;27.47;16.00;;;3.40;96.40;;;;;;759419;184;26506;-89
2023/11/29 16:28:32;;;;;;;28.17;15.33;;;3.30;96.40;;;;;;761310;187;26526;-89
2023/11/29 16:31:00;;;;;;;25.40;14.40;;;3.40;96.70;;;;;;754108;184;26514;-90
2023/11/29 16:33:29;;;;;;;46.20;23.10;;;3.40;96.80;;;;;;766417;184;26618;-89
2023/11/29 16:36:01;;;;;;;27.07;15.73;;;3.40;96.90;;;;;;765771;186;26581;-90
2023/11/29 16:38:27;;;;;;;34.57;19.37;;;3.40;97.00;;;;;;766432;187;28295;-89
2023/11/29 16:40:53;;;;;;;104.23;48.07;;;3.40;97.00;;;;;;766479;184;28167;-90
2023/11/29 16:43:20;;;;;;;71.73;32.87;;;3.40;96.90;;;;;;766119;187;27077;-93
2023/11/29 16:45:47;;;;;;;63.83;30.53;;;3.40;96.90;;;;;;766101;184;26511;-90
2023/11/29 16:48:13;;;;;;;52.07;27.33;;;3.50;97.00;;;;;;766119;184;27053;-89
2023/11/29 16:50:40;;;;;;;52.03;27.23;;;3.40;96.90;;;;;;766337;184;27085;-90
2023/11/29 16:53:07;;;;;;;58.57;28.37;;;3.40;96.90;;;;;;766234;183;26843;-92
2023/11/29 16:55:33;;;;;;;74.00;33.00;;;3.40;96.90;;;;;;764958;187;26495;-90
2023/11/29 16:58:04;;;;;;;139.27;62.07;;;3.40;96.90;;;;;;766169;185;26504;-87
2023/11/29 17:00:29;;;;;;;107.70;48.33;;;3.40;96.80;;;;;;766128;187;26833;-89
2023/11/29 17:02:59;;;;;;;81.30;36.07;;;3.50;96.80;;;;;;764839;184;26534;-87
2023/11/29 17:05:32;;;;;;;37.63;20.17;;;3.50;96.70;;;;;;766121;184;26556;-89
2023/11/29 17:07:59;;;;;;;76.50;33.10;;;3.60;96.70;;;;;;768021;186;26508;-90
2023/11/29 17:10:25;;;;;;;49.50;23.80;;;3.70;96.50;;;;;;768250;184;26658;-90
2023/11/29 17:12:57;;;;;;;67.50;31.00;;;3.70;96.60;;;;;;765375;184;27122;-92
2023/11/29 17:15:23;;;;;;;119.47;51.40;;;3.70;96.50;;;;;;765193;187;27054;-90
2023/11/29 17:17:50;;;;;;;251.00;113.00;;;3.70;96.50;;;;;;764991;185;26492;-93
2023/11/29 17:23:01;;;;;;;155.60;72.50;;;3.70;96.20;;;;;;808501;172;26978;-91
2023/11/29 17:25:29;;;;;;;130.80;59.10;;;3.70;96.30;;;;;;809467;177;26437;-91
2023/11/29 17:27:54;;;;;;;58.00;28.60;;;3.70;96.10;;;;;;809371;177;26439;-89
2023/11/29 17:30:35;;;;;;;103.80;46.97;;;3.70;96.20;;;;;;810638;177;26461;-90
2023/11/29 17:35:44;;;;;;;76.93;40.27;;;3.70;96.40;;;;;;798670;174;26931;-88
2023/11/29 17:38:12;;;;;;;40.67;22.47;;;3.70;96.20;;;;;;810118;178;26437;-88
2023/11/29 17:40:37;;;;;;;42.37;23.83;;;3.70;96.20;;;;;;809656;177;26464;-88
2023/11/29 17:43:03;;;;;;;130.20;63.40;;;3.60;96.10;;;;;;809955;177;27002;-87
2023/11/29 17:45:30;;;;;;;141.60;63.50;;;3.60;96.30;;;;;;809071;177;26428;-88
2023/11/29 17:47:56;;;;;;;385.73;161.03;;;3.60;96.00;;;;;;805172;178;27052;-87
2023/11/29 17:50:25;;;;;;;116.37;52.63;;;3.60;96.20;;;;;;805278;178;26459;-87
2023/11/29 17:52:50;;;;;;;178.77;85.43;;;3.60;96.30;;;;;;805115;177;26443;-87
2023/11/29 17:55:16;;;;;;;254.13;114.57;;;3.50;96.30;;;;;;805284;178;26434;-87
2023/11/29 17:57:43;;;;;;;299.37;124.53;;;3.50;96.50;;;;;;805181;177;26438;-88
2023/11/29 18:00:10;;;;;;;128.33;52.33;;;3.50;96.50;;;;;;805245;176;27021;-87
2023/11/29 18:02:37;;;;;;;262.03;105.67;;;3.50;96.80;;;;;;805323;177;26450;-87
2023/11/29 18:05:03;;;;;;;117.63;54.43;;;3.50;96.80;;;;;;805530;177;27032;-87
2023/11/29 18:07:30;;;;;;;110.27;56.97;;;3.60;96.70;;;;;;805258;177;27031;-88
2023/11/29 18:09:56;;;;;;;137.97;69.60;;;3.60;96.40;;;;;;805202;177;26430;-86
2023/11/29 18:12:23;;;;;;;70.00;36.77;;;3.60;96.40;;;;;;805304;178;27029;-87
2023/11/29 18:14:50;;;;;;;284.00;117.43;;;3.70;96.50;;;;;;805216;177;26453;-88
2023/11/29 18:17:16;;;;;;;116.00;53.73;;;3.60;96.40;;;;;;805038;177;26998;-88
2023/11/29 18:19:43;;;;;;;128.90;59.13;;;3.60;96.50;;;;;;808255;176;26446;-87
2023/11/29 18:22:10;;;;;;;184.17;82.30;;;3.60;96.30;;;;;;807150;178;26974;-87
2023/11/29 18:24:36;;;;;;;192.43;78.83;;;3.70;96.50;;;;;;806779;177;26438;-87
2023/11/29 18:27:03;;;;;;;63.50;32.93;;;3.70;97.00;;;;;;806618;178;26441;-88
2023/11/29 18:29:31;;;;;;;33.43;22.73;;;3.60;96.50;;;;;;806173;177;26433;-87
2023/11/29 18:31:56;;;;;;;97.67;48.90;;;3.60;96.40;;;;;;805973;177;26995;-87
2023/11/29 18:34:23;;;;;;;285.00;114.70;;;3.70;96.40;;;;;;806131;177;26456;-87
2023/11/29 18:36:49;;;;;;;73.60;36.60;;;3.60;96.40;;;;;;805628;178;26450;-87
2023/11/29 18:39:17;;;;;;;85.50;39.33;;;3.60;96.30;;;;;;805682;178;26430;-88
2023/11/29 18:41:42;;;;;;;167.00;86.73;;;3.60;96.20;;;;;;805368;178;26466;-87
2023/11/29 18:44:09;;;;;;;279.67;129.90;;;3.60;96.30;;;;;;805558;178;26430;-87
2023/11/29 18:46:35;;;;;;;315.00;138.13;;;3.50;96.20;;;;;;805307;177;26441;-88
2023/11/29 18:49:02;;;;;;;254.77;116.60;;;3.50;96.40;;;;;;805375;178;26985;-87
2023/11/29 18:51:52;;;;;;;43.13;24.40;;;3.50;96.50;;;;;;805462;178;26456;-87
2023/11/29 18:54:19;;;;;;;105.03;51.53;;;3.40;96.10;;;;;;805064;178;26428;-89
2023/11/29 18:56:48;;;;;;;81.90;36.97;;;3.30;96.00;;;;;;804860;177;26489;-89
2023/11/29 18:59:13;;;;;;;60.23;29.63;;;3.20;96.20;;;;;;804449;178;26426;-87
2023/11/29 19:01:38;;;;;;;48.40;29.33;;;3.20;96.40;;;;;;804851;178;26455;-89
2023/11/29 19:04:05;;;;;;;106.67;49.57;;;3.10;96.50;;;;;;804698;177;26426;-88
2023/11/29 19:06:32;;;;;;;173.80;69.50;;;3.10;96.50;;;;;;804742;177;26467;-87
2023/11/29 19:08:58;;;;;;;358.93;131.93;;;3.00;96.40;;;;;;804862;177;26977;-88
2023/11/29 19:11:25;;;;;;;334.40;132.93;;;3.10;96.60;;;;;;804542;178;26492;-87
2023/11/29 19:13:51;;;;;;;62.80;32.63;;;3.00;96.60;;;;;;792112;178;26481;-88
2023/11/29 19:16:18;;;;;;;66.37;32.23;;;3.00;96.50;;;;;;800226;177;26471;-86
2023/11/29 19:18:45;;;;;;;168.30;74.03;;;2.90;96.50;;;;;;789900;177;27089;-87
2023/11/29 19:21:11;;;;;;;202.77;83.87;;;2.90;96.50;;;;;;801392;177;26445;-87
2023/11/29 19:23:38;;;;;;;429.77;193.87;;;2.90;96.50;;;;;;807283;177;26470;-87
2023/11/29 19:26:05;;;;;;;107.17;50.50;;;2.80;96.40;;;;;;810034;177;26441;-86
2023/11/29 19:28:31;;;;;;;107.80;47.10;;;2.80;96.60;;;;;;794930;177;26460;-87
2023/11/29 19:30:59;;;;;;;112.70;53.10;;;2.80;96.70;;;;;;792135;180;26446;-87
2023/11/29 19:33:24;;;;;;;124.90;57.33;;;2.70;96.40;;;;;;797576;178;26491;-89
2023/11/29 19:35:51;;;;;;;228.77;88.20;;;2.60;96.40;;;;;;800438;177;26464;-89
2023/11/29 19:38:18;;;;;;;189.63;72.90;;;2.60;96.60;;;;;;798487;177;26535;-87
2023/11/29 19:40:44;;;;;;;111.97;43.67;;;2.60;96.70;;;;;;798751;177;27062;-88
2023/11/29 19:43:11;;;;;;;199.70;77.13;;;2.60;96.80;;;;;;795767;177;26464;-88
2023/11/29 19:45:37;;;;;;;62.07;34.23;;;2.50;96.80;;;;;;793698;177;27059;-89
2023/11/29 19:48:04;;;;;;;165.57;73.90;;;2.50;97.00;;;;;;797055;178;26464;-88
2023/11/29 19:50:31;;;;;;;257.47;105.33;;;2.50;96.90;;;;;;795184;177;26435;-87
2023/11/29 19:52:57;;;;;;;179.10;72.87;;;2.50;97.00;;;;;;800364;177;26515;-88
2023/11/29 19:55:24;;;;;;;263.03;106.00;;;2.40;97.00;;;;;;794065;177;26468;-87
2023/11/29 19:57:50;;;;;;;310.27;131.07;;;2.40;97.10;;;;;;790377;177;27024;-89
2023/11/29 20:00:19;;;;;;;444.70;195.80;;;2.40;97.10;;;;;;802245;177;26422;-87
2023/11/29 20:02:44;;;;;;;426.70;185.70;;;2.40;97.20;;;;;;793158;177;26494;-87
2023/11/29 20:05:11;;;;;;;340.30;151.97;;;2.50;97.50;;;;;;792716;179;26967;-89
2023/11/29 20:07:37;;;;;;;123.00;57.80;;;2.50;97.50;;;;;;797056;178;26434;-88
2023/11/29 20:10:04;;;;;;;104.50;48.27;;;2.50;97.40;;;;;;791595;177;26476;-88
2023/11/29 20:12:31;;;;;;;103.60;50.27;;;2.50;97.50;;;;;;799229;177;26501;-88
2023/11/29 20:14:57;;;;;;;162.20;77.13;;;2.60;97.60;;;;;;802988;177;27077;-89
2023/11/29 20:17:24;;;;;;;217.80;100.73;;;2.50;97.50;;;;;;791965;177;26490;-88
2023/11/29 20:19:51;;;;;;;156.40;69.43;;;2.50;97.50;;;;;;802588;177;26482;-88
2023/11/29 20:22:17;;;;;;;293.60;120.17;;;2.60;97.50;;;;;;801759;177;27005;-88
2023/11/29 20:24:44;;;;;;;163.70;80.23;;;2.70;97.60;;;;;;791209;178;26510;-90
2023/11/29 20:27:10;;;;;;;120.90;54.83;;;2.70;97.50;;;;;;800269;177;28080;-88
2023/11/29 20:29:37;;;;;;;76.40;37.60;;;2.70;97.40;;;;;;798282;177;26508;-89
2023/11/29 20:32:04;;;;;;;66.00;39.00;;;2.70;97.30;;;;;;789393;177;26466;-90
2023/11/29 20:34:30;;;;;;;58.53;34.40;;;2.60;97.20;;;;;;801689;177;26686;-90
2023/11/29 20:36:57;;;;;;;82.73;46.33;;;2.60;97.30;;;;;;806418;177;26447;-90
2023/11/29 20:39:23;;;;;;;367.70;164.27;;;2.60;97.20;;;;;;807203;177;26442;-89
2023/11/29 20:41:50;;;;;;;158.33;71.13;;;2.70;97.40;;;;;;797188;176;26499;-89
2023/11/29 20:44:17;;;;;;;71.23;38.60;;;2.70;97.50;;;;;;801380;176;26517;-90
2023/11/29 20:46:43;;;;;;;27.20;17.43;;;2.70;97.50;;;;;;799883;177;26995;-89
2023/11/29 20:49:10;;;;;;;36.70;21.07;;;2.80;97.60;;;;;;799971;177;26491;-91
2023/11/29 20:51:36;;;;;;;29.50;18.10;;;2.80;97.50;;;;;;802895;177;26418;-89
2023/11/29 20:54:31;;;;;;;21.33;15.07;;;2.90;97.60;;;;;;809019;177;26477;-88
2023/11/29 21:00:38;;;;;;;29.77;18.50;;;3.10;97.40;;;;;;794198;177;26469;-87
2023/11/29 21:08:42;;;;;;;35.07;20.83;;;2.60;96.80;;;;;;796930;177;26989;-88
2023/11/29 21:11:34;;;;;;;;;;;;;;;;;;;;;
2023/11/29 21:14:24;;;;;;;24.87;16.10;;;2.60;97.00;;;;;;796028;177;27821;-89
2023/11/29 21:17:03;;;;;;;30.50;19.60;;;2.60;97.00;;;;;;797388;177;26453;-89
2023/11/29 21:20:00;;;;;;;;;;;;;;;;;;;;;
2023/11/29 21:25:23;;;;;;;37.00;21.57;;;2.60;97.10;;;;;;793850;177;26593;-89
2023/11/29 21:27:50;;;;;;;40.00;24.37;;;2.70;97.40;;;;;;796185;177;27018;-89
2023/11/29 21:30:17;;;;;;;85.67;38.70;;;2.80;97.60;;;;;;798814;177;26452;-89
2023/11/29 21:32:43;;;;;;;58.77;32.30;;;2.90;97.60;;;;;;788706;181;26509;-88
2023/11/29 21:35:10;;;;;;;41.47;24.00;;;2.80;97.50;;;;;;797973;177;27004;-88
2023/11/29 21:37:37;;;;;;;82.10;43.73;;;2.90;97.60;;;;;;797865;177;26484;-89